createdAt,value
2019-01-13T00:00:53.259Z,5.50
2019-01-13T00:03:56.339Z,5.50
2019-01-13T00:06:59.543Z,5.40
2019-01-13T00:10:03.817Z,5.40
2019-01-13T00:13:07.534Z,5.40
2019-01-13T00:16:10.900Z,5.40
2019-01-13T00:19:14.367Z,5.50
2019-01-13T00:22:17.671Z,5.50
2019-01-13T00:25:21.238Z,5.40
2019-01-13T00:28:24.770Z,5.40
2019-01-13T00:31:29.117Z,5.40
2019-01-13T00:34:32.262Z,5.40
2019-01-13T00:37:35.138Z,5.40
2019-01-13T00:40:38.207Z,5.40
2019-01-13T00:43:41.084Z,5.30
2019-01-13T00:46:44.470Z,5.30
2019-01-13T00:49:47.939Z,5.30
2019-01-13T00:52:52.198Z,5.30
2019-01-13T00:55:55.643Z,5.30
2019-01-13T00:58:58.878Z,5.30
2019-01-13T01:02:02.066Z,5.30
2019-01-13T01:05:06.806Z,5.20
2019-01-13T01:08:10.239Z,5.20
2019-01-13T01:11:13.771Z,5.20
2019-01-13T01:14:17.070Z,5.20
2019-01-13T01:17:20.267Z,5.10
2019-01-13T01:20:23.454Z,5.10
2019-01-13T01:23:26.654Z,5.00
2019-01-13T01:26:29.851Z,5.00
2019-01-13T01:29:33.736Z,5.00
2019-01-13T01:32:36.858Z,5.00
2019-01-13T01:35:39.631Z,5.00
2019-01-13T01:38:42.412Z,5.00
2019-01-13T01:41:45.316Z,5.00
2019-01-13T01:44:48.143Z,5.00
2019-01-13T01:47:50.955Z,5.10
2019-01-13T01:50:54.174Z,5.10
2019-01-13T01:53:56.967Z,5.10
2019-01-13T01:56:59.771Z,5.10
2019-01-13T02:00:05.247Z,5.10
2019-01-13T02:03:08.403Z,5.10
2019-01-13T02:06:11.606Z,5.10
2019-01-13T02:09:14.786Z,5.10
2019-01-13T02:12:17.990Z,5.00
2019-01-13T02:15:23.610Z,5.00
2019-01-13T02:18:27.198Z,5.10
2019-01-13T02:21:30.235Z,5.00
2019-01-13T02:24:33.479Z,5.00
2019-01-13T02:27:36.522Z,5.00
2019-01-13T02:30:39.961Z,5.00
2019-01-13T02:33:42.972Z,5.00
2019-01-13T02:36:46.250Z,5.10
2019-01-13T02:39:49.306Z,5.00
2019-01-13T02:42:53.313Z,5.00
2019-01-13T02:45:56.412Z,5.00
2019-01-13T02:48:59.963Z,5.00
2019-01-13T02:52:03.353Z,4.90
2019-01-13T02:55:06.763Z,4.90
2019-01-13T02:58:09.915Z,4.80
2019-01-13T03:01:13.154Z,4.80
2019-01-13T03:04:16.196Z,4.80
2019-01-13T03:07:19.327Z,4.80
2019-01-13T03:10:23.999Z,4.80
2019-01-13T03:13:27.789Z,4.80
2019-01-13T03:16:30.932Z,4.90
2019-01-13T03:19:34.067Z,4.90
2019-01-13T03:22:37.106Z,4.90
2019-01-13T03:25:40.299Z,4.90
2019-01-13T03:28:43.501Z,4.90
2019-01-13T03:31:46.951Z,4.90
2019-01-13T03:34:50.095Z,4.90
2019-01-13T03:37:53.227Z,4.90
2019-01-13T03:40:56.276Z,4.90
2019-01-13T03:43:59.526Z,4.90
2019-01-13T03:47:02.663Z,4.90
2019-01-13T03:50:08.244Z,4.90
2019-01-13T03:53:11.314Z,4.90
2019-01-13T03:56:15.167Z,4.90
2019-01-13T03:59:18.316Z,4.90
2019-01-13T04:02:21.448Z,4.90
2019-01-13T04:05:24.501Z,4.90
2019-01-13T04:08:27.847Z,5.00
2019-01-13T04:11:30.895Z,4.90
2019-01-13T04:14:34.439Z,4.90
2019-01-13T04:17:37.894Z,4.90
2019-01-13T04:20:41.134Z,4.90
2019-01-13T04:23:44.278Z,4.90
2019-01-13T04:26:47.730Z,4.90
2019-01-13T04:29:50.774Z,4.90
2019-01-13T04:32:54.223Z,4.80
2019-01-13T04:35:57.166Z,4.80
2019-01-13T04:39:00.264Z,4.80
2019-01-13T04:42:03.352Z,4.80
2019-01-13T04:45:07.268Z,4.80
2019-01-13T04:48:10.364Z,4.70
2019-01-13T04:51:13.450Z,4.60
2019-01-13T04:54:16.643Z,4.60
2019-01-13T04:57:19.738Z,4.60
2019-01-13T05:00:22.934Z,4.60
2019-01-13T05:03:26.028Z,4.60
2019-01-13T05:06:29.222Z,4.60
2019-01-13T05:09:32.315Z,4.60
2019-01-13T05:12:35.407Z,4.60
2019-01-13T05:15:38.707Z,4.70
2019-01-13T05:18:41.796Z,4.70
2019-01-13T05:21:44.995Z,4.80
2019-01-13T05:24:48.082Z,4.80
2019-01-13T05:27:51.335Z,4.80
2019-01-13T05:30:54.370Z,4.80
2019-01-13T05:33:57.466Z,4.80
2019-01-13T05:37:00.555Z,4.80
2019-01-13T05:40:04.774Z,4.90
2019-01-13T05:43:07.868Z,4.90
2019-01-13T05:46:10.963Z,4.90
2019-01-13T05:49:14.158Z,4.90
2019-01-13T05:52:17.287Z,4.90
2019-01-13T05:55:20.750Z,4.90
2019-01-13T05:58:25.008Z,5.00
2019-01-13T06:01:28.163Z,5.00
2019-01-13T06:04:31.715Z,5.00
2019-01-13T06:07:34.760Z,5.00
2019-01-13T06:10:37.994Z,5.10
2019-01-13T06:13:41.055Z,5.10
2019-01-13T06:16:44.283Z,5.10
2019-01-13T06:19:47.335Z,5.10
2019-01-13T06:22:50.678Z,5.10
2019-01-13T06:25:53.722Z,5.20
2019-01-13T06:28:57.083Z,5.20
2019-01-13T06:32:00.221Z,5.20
2019-01-13T06:35:04.180Z,5.20
2019-01-13T06:38:07.231Z,5.20
2019-01-13T06:41:10.388Z,5.20
2019-01-13T06:44:13.715Z,5.20
2019-01-13T06:47:16.979Z,5.20
2019-01-13T06:50:20.107Z,5.20
2019-01-13T06:53:23.274Z,5.30
2019-01-13T06:56:26.395Z,5.20
2019-01-13T06:59:29.527Z,5.30
2019-01-13T07:02:32.579Z,5.30
2019-01-13T07:05:36.026Z,5.30
2019-01-13T07:08:39.176Z,5.30
2019-01-13T07:11:42.518Z,5.30
2019-01-13T07:14:45.670Z,5.30
2019-01-13T07:17:49.215Z,5.40
2019-01-13T07:20:52.262Z,5.40
2019-01-13T07:23:55.706Z,5.30
2019-01-13T07:26:58.854Z,5.30
2019-01-13T07:30:02.192Z,5.30
2019-01-13T07:33:05.250Z,5.30
2019-01-13T07:36:08.482Z,5.30
2019-01-13T07:39:11.535Z,5.30
2019-01-13T07:42:15.082Z,5.40
2019-01-13T07:45:20.384Z,5.40
2019-01-13T07:48:23.880Z,5.40
2019-01-13T07:51:26.875Z,5.40
2019-01-13T07:54:30.108Z,5.40
2019-01-13T07:57:33.163Z,5.40
2019-01-13T08:00:36.499Z,5.40
2019-01-13T08:03:39.558Z,5.40
2019-01-13T08:06:42.794Z,5.40
2019-01-13T08:09:45.590Z,5.50
2019-01-13T08:12:48.479Z,5.40
2019-01-13T08:15:51.271Z,5.50
2019-01-13T08:18:54.206Z,5.50
2019-01-13T08:21:56.999Z,5.50
2019-01-13T08:24:59.788Z,5.50
2019-01-13T08:28:02.679Z,5.50
2019-01-13T08:31:05.455Z,5.50
2019-01-13T08:34:08.326Z,5.50
2019-01-13T08:37:11.099Z,5.50
2019-01-13T08:40:15.698Z,5.50
2019-01-13T08:43:18.490Z,5.50
2019-01-13T08:46:21.272Z,5.60
2019-01-13T08:49:24.055Z,5.60
2019-01-13T08:52:26.891Z,5.60
2019-01-13T08:55:29.921Z,5.70
2019-01-13T08:58:33.167Z,5.70
2019-01-13T09:01:36.354Z,5.70
2019-01-13T09:04:39.447Z,5.80
2019-01-13T09:07:42.605Z,5.80
2019-01-13T09:10:45.634Z,5.70
2019-01-13T09:13:48.929Z,5.80
2019-01-13T09:16:52.119Z,5.70
2019-01-13T09:19:55.003Z,5.70
2019-01-13T09:22:59.307Z,5.70
2019-01-13T09:26:02.161Z,5.70
2019-01-13T09:29:04.943Z,5.70
2019-01-13T09:32:07.786Z,5.80
2019-01-13T09:35:10.663Z,5.70
2019-01-13T09:38:13.501Z,5.70
2019-01-13T09:41:16.294Z,5.80
2019-01-13T09:44:19.159Z,5.80
2019-01-13T09:47:22.238Z,5.80
2019-01-13T09:50:25.062Z,5.80
2019-01-13T09:53:27.838Z,5.80
2019-01-13T09:56:31.812Z,5.80
2019-01-13T09:59:34.588Z,5.80
2019-01-13T10:02:37.407Z,5.90
2019-01-13T10:05:40.215Z,5.90
2019-01-13T10:08:43.086Z,5.80
2019-01-13T10:11:46.035Z,5.90
2019-01-13T10:14:49.063Z,5.90
2019-01-13T10:17:51.967Z,5.90
2019-01-13T10:20:56.086Z,5.90
2019-01-13T10:23:59.014Z,5.90
2019-01-13T10:27:02.084Z,6.00
2019-01-13T10:30:07.963Z,6.00
2019-01-13T10:33:10.913Z,5.90
2019-01-13T10:36:13.679Z,6.00
2019-01-13T10:39:16.503Z,6.00
2019-01-13T10:42:19.285Z,6.00
2019-01-13T10:45:22.588Z,6.10
2019-01-13T10:48:25.723Z,6.10
2019-01-13T10:51:28.951Z,6.10
2019-01-13T10:54:31.730Z,6.10
2019-01-13T10:57:36.085Z,6.10
2019-01-13T11:00:38.970Z,6.10
2019-01-13T11:03:42.931Z,6.10
2019-01-13T11:06:45.706Z,6.10
2019-01-13T11:09:49.049Z,6.10
2019-01-13T11:12:52.203Z,6.10
2019-01-13T11:15:55.451Z,6.00
2019-01-13T11:18:58.235Z,6.00
2019-01-13T11:22:01.127Z,6.10
2019-01-13T11:25:04.409Z,6.10
2019-01-13T11:28:07.367Z,6.10
2019-01-13T11:31:10.170Z,6.10
2019-01-13T11:34:12.954Z,6.10
2019-01-13T11:37:15.739Z,6.10
2019-01-13T11:40:23.596Z,6.10
2019-01-13T11:43:26.403Z,6.10
2019-01-13T11:46:29.167Z,6.10
2019-01-13T11:49:32.087Z,6.10
2019-01-13T11:52:34.866Z,6.10
2019-01-13T11:55:37.647Z,6.10
2019-01-13T11:58:40.430Z,6.10
2019-01-13T12:01:43.317Z,6.10
2019-01-13T12:04:46.172Z,6.10
2019-01-13T12:07:48.955Z,6.10
2019-01-13T12:11:19.307Z,6.10
2019-01-13T12:14:22.085Z,6.10
2019-01-13T12:17:24.882Z,6.10
2019-01-13T12:20:27.679Z,6.10
2019-01-13T12:23:30.462Z,6.10
2019-01-13T12:26:33.275Z,6.10
2019-01-13T12:29:36.059Z,6.10
2019-01-13T12:32:38.853Z,6.20
2019-01-13T12:35:41.744Z,6.20
2019-01-13T12:38:44.594Z,6.20
2019-01-13T12:41:47.542Z,6.10
2019-01-13T12:44:51.427Z,6.10
2019-01-13T12:47:54.399Z,6.10
2019-01-13T12:50:57.178Z,6.20
2019-01-13T12:54:00.099Z,6.20
2019-01-13T12:57:03.099Z,6.20
2019-01-13T13:00:06.602Z,6.20
2019-01-13T13:03:09.503Z,6.30
2019-01-13T13:06:12.398Z,6.30
2019-01-13T13:09:15.182Z,6.30
2019-01-13T13:12:18.010Z,6.30
2019-01-13T13:15:20.793Z,6.30
2019-01-13T13:18:23.942Z,6.40
2019-01-13T13:21:26.824Z,6.40
2019-01-13T13:24:29.912Z,6.40
2019-01-13T13:27:32.803Z,6.40
2019-01-13T13:30:35.992Z,6.50
2019-01-13T13:33:39.077Z,6.50
2019-01-13T13:36:42.295Z,6.50
2019-01-13T13:39:45.071Z,6.50
2019-01-13T13:42:49.391Z,6.50
2019-01-13T13:45:52.545Z,6.60
2019-01-13T13:48:56.277Z,6.60
2019-01-13T13:51:59.349Z,6.60
2019-01-13T13:55:02.623Z,6.60
2019-01-13T13:58:05.535Z,6.70
2019-01-13T14:01:08.735Z,6.70
2019-01-13T14:04:12.160Z,6.70
2019-01-13T14:07:15.138Z,6.80
2019-01-13T14:10:27.023Z,6.80
2019-01-13T14:13:42.750Z,6.90
2019-01-13T14:16:46.082Z,6.90
2019-01-13T14:19:49.242Z,7.00
2019-01-13T14:22:52.370Z,7.10
2019-01-13T14:25:55.642Z,7.20
2019-01-13T14:28:58.762Z,7.20
2019-01-13T14:32:02.005Z,7.30
2019-01-13T14:35:05.666Z,7.30
2019-01-13T14:38:08.903Z,7.30
2019-01-13T14:41:11.954Z,7.40
2019-01-13T14:44:15.319Z,7.40
2019-01-13T14:47:18.446Z,7.40
2019-01-13T14:50:26.923Z,7.50
2019-01-13T14:53:29.959Z,7.50
2019-01-13T14:56:33.191Z,7.50
2019-01-13T14:59:36.346Z,7.60
2019-01-13T15:02:39.687Z,7.60
2019-01-13T15:05:43.046Z,7.60
2019-01-13T15:08:46.310Z,7.60
2019-01-13T15:11:49.435Z,7.60
2019-01-13T15:14:52.532Z,7.60
2019-01-13T15:17:55.622Z,7.60
2019-01-13T15:20:58.818Z,7.70
2019-01-13T15:24:02.036Z,7.70
2019-01-13T15:27:05.312Z,7.70
2019-01-13T15:30:17.620Z,7.70
2019-01-13T15:33:20.922Z,7.70
2019-01-13T15:36:24.239Z,7.70
2019-01-13T15:39:28.487Z,7.70
2019-01-13T15:42:32.035Z,7.70
2019-01-13T15:45:35.461Z,7.70
2019-01-13T15:48:39.958Z,7.70
2019-01-13T15:51:43.259Z,7.70
2019-01-13T15:54:46.455Z,7.80
2019-01-13T15:57:49.690Z,7.70
2019-01-13T16:00:53.190Z,7.70
2019-01-13T16:03:57.114Z,7.80
2019-01-13T16:07:00.810Z,7.80
2019-01-13T16:10:07.423Z,7.80
2019-01-13T16:13:10.899Z,7.80
2019-01-13T16:16:14.594Z,7.80
2019-01-13T16:19:17.981Z,7.70
2019-01-13T16:22:21.292Z,7.70
2019-01-13T16:25:24.346Z,7.70
2019-01-13T16:28:27.443Z,7.70
2019-01-13T16:31:30.734Z,7.70
2019-01-13T16:34:34.144Z,7.70
2019-01-13T16:37:38.048Z,7.60
2019-01-13T16:40:41.414Z,7.70
2019-01-13T16:43:44.951Z,7.70
2019-01-13T16:46:49.261Z,7.60
2019-01-13T16:49:52.671Z,7.60
2019-01-13T16:52:57.670Z,7.70
2019-01-13T16:56:03.417Z,7.70
2019-01-13T17:02:21.940Z,7.70
2019-01-13T17:05:25.747Z,7.60
2019-01-13T17:08:29.807Z,7.60
2019-01-13T17:11:33.611Z,7.60
2019-01-13T17:14:37.498Z,7.60
2019-01-13T17:17:41.606Z,7.60
2019-01-13T17:20:44.903Z,7.60
2019-01-13T17:23:48.370Z,7.60
2019-01-13T17:26:51.594Z,7.60
2019-01-13T17:29:54.835Z,7.60
2019-01-13T17:32:59.292Z,7.50
2019-01-13T17:36:02.594Z,7.50
2019-01-13T17:39:07.514Z,7.50
2019-01-13T17:42:11.003Z,7.50
2019-01-13T17:45:15.450Z,7.50
2019-01-13T17:48:18.723Z,7.40
2019-01-13T17:51:21.875Z,6.80
2019-01-13T17:54:25.130Z,6.40
2019-01-13T17:57:28.256Z,6.20
2019-01-13T18:00:40.250Z,6.20
2019-01-13T18:03:45.067Z,6.10
2019-01-13T18:06:49.148Z,6.20
2019-01-13T18:09:52.199Z,6.30
2019-01-13T18:12:56.230Z,6.50
2019-01-13T18:15:59.406Z,6.60
2019-01-13T18:19:03.826Z,6.80
2019-01-13T18:22:07.951Z,6.80
2019-01-13T18:25:11.863Z,6.90
2019-01-13T18:28:15.955Z,7.00
2019-01-13T18:31:20.451Z,7.00
2019-01-13T18:34:24.763Z,7.00
2019-01-13T18:37:29.375Z,7.00
2019-01-13T18:40:33.529Z,6.90
2019-01-13T18:43:38.875Z,6.90
2019-01-13T18:46:43.142Z,6.80
2019-01-13T18:49:48.043Z,6.70
2019-01-13T18:52:58.167Z,6.70
2019-01-13T18:56:02.785Z,6.60
2019-01-13T18:59:07.218Z,6.60
2019-01-13T19:02:11.837Z,6.50
2019-01-13T19:05:16.973Z,6.50
2019-01-13T19:08:21.224Z,6.60
2019-01-13T19:11:28.935Z,6.60
2019-01-13T19:14:42.313Z,6.70
2019-01-13T19:17:46.478Z,6.60
2019-01-13T19:20:50.806Z,6.60
2019-01-13T19:23:54.808Z,6.60
2019-01-13T19:26:58.820Z,6.50
2019-01-13T19:30:03.334Z,6.60
2019-01-13T19:33:09.209Z,6.50
2019-01-13T19:36:13.227Z,6.50
2019-01-13T19:39:17.286Z,6.40
2019-01-13T19:42:32.687Z,6.30
2019-01-13T19:45:36.679Z,6.30
2019-01-13T19:48:40.946Z,6.30
2019-01-13T19:51:47.117Z,6.20
2019-01-13T19:54:51.584Z,6.20
2019-01-13T19:57:55.707Z,6.20
2019-01-13T20:00:59.961Z,6.20
2019-01-13T20:04:04.342Z,6.20
2019-01-13T20:07:08.435Z,6.20
2019-01-13T20:10:13.694Z,6.20
2019-01-13T20:13:18.600Z,6.10
2019-01-13T20:16:23.224Z,6.10
2019-01-13T20:19:27.722Z,6.00
2019-01-13T20:22:32.265Z,6.10
2019-01-13T20:25:37.145Z,6.00
2019-01-13T20:28:41.532Z,6.00
2019-01-13T20:31:44.970Z,6.10
2019-01-13T20:34:49.172Z,6.10
2019-01-13T20:37:54.173Z,6.10
2019-01-13T20:40:57.438Z,6.10
2019-01-13T20:44:00.470Z,6.10
2019-01-13T20:47:03.474Z,6.10
2019-01-13T20:50:07.918Z,6.20
2019-01-13T20:53:11.358Z,6.20
2019-01-13T20:56:14.162Z,6.20
2019-01-13T20:59:17.070Z,6.20
2019-01-13T21:02:19.948Z,6.10
2019-01-13T21:05:27.050Z,6.10
2019-01-13T21:08:28.490Z,6.10
2019-01-13T21:11:31.395Z,6.00
2019-01-13T21:14:34.455Z,6.00
2019-01-13T21:17:37.774Z,6.00
2019-01-13T21:20:42.025Z,5.90
2019-01-13T21:23:45.267Z,6.00
2019-01-13T21:26:48.428Z,5.90
2019-01-13T21:29:51.663Z,5.90
2019-01-13T21:32:55.368Z,5.90
2019-01-13T21:35:58.566Z,5.90
2019-01-13T21:39:01.816Z,5.90
2019-01-13T21:42:06.080Z,5.80
2019-01-13T21:45:11.255Z,5.70
2019-01-13T21:48:15.355Z,5.60
2019-01-13T21:51:18.598Z,5.50
2019-01-13T21:54:21.695Z,5.50
2019-01-13T21:57:24.883Z,5.50
2019-01-13T22:00:28.191Z,5.40
2019-01-13T22:03:31.270Z,5.40
2019-01-13T22:06:34.575Z,5.50
2019-01-13T22:09:37.672Z,5.50
2019-01-13T22:12:40.863Z,5.50
2019-01-13T22:15:44.058Z,5.50
2019-01-13T22:18:47.251Z,5.70
2019-01-13T22:21:50.539Z,5.60
2019-01-13T22:24:53.643Z,5.60
2019-01-13T22:27:56.839Z,5.70
2019-01-13T22:31:00.037Z,5.70
2019-01-13T22:34:03.222Z,5.70
2019-01-13T22:37:06.010Z,5.80
2019-01-13T22:40:11.236Z,5.70
2019-01-13T22:43:14.446Z,5.70
2019-01-13T22:46:17.539Z,5.70
2019-01-13T22:49:20.736Z,5.50
2019-01-13T22:52:23.930Z,5.30
2019-01-13T22:55:27.233Z,5.30
2019-01-13T22:58:30.323Z,5.20
2019-01-13T23:01:36.807Z,5.20
2019-01-13T23:04:39.987Z,5.10
2019-01-13T23:07:43.327Z,5.10
2019-01-13T23:10:46.479Z,5.10
2019-01-13T23:13:49.822Z,5.10
2019-01-13T23:16:52.977Z,5.10
2019-01-13T23:19:56.219Z,5.10
2019-01-13T23:22:59.367Z,5.00
2019-01-13T23:26:02.665Z,5.00
2019-01-13T23:29:05.856Z,4.90
2019-01-13T23:32:10.463Z,4.80
2019-01-13T23:35:13.501Z,4.70
2019-01-13T23:38:16.610Z,4.70
2019-01-13T23:41:19.768Z,4.60
2019-01-13T23:44:23.417Z,4.70
2019-01-13T23:47:26.558Z,4.70
2019-01-13T23:50:29.818Z,4.60
2019-01-13T23:53:33.050Z,4.60
2019-01-13T23:56:36.299Z,4.60
2019-01-13T23:59:39.451Z,4.60
